createdAt,value
2018-11-26T00:00:48.470Z,78.32
2018-11-26T00:04:18.561Z,78.36
2018-11-26T00:07:48.613Z,78.43
2018-11-26T00:11:33.363Z,78.51
2018-11-26T00:15:03.691Z,78.56
2018-11-26T00:18:33.994Z,78.62
2018-11-26T00:22:04.267Z,78.67
2018-11-26T00:25:34.495Z,78.69
2018-11-26T00:29:04.539Z,78.74
2018-11-26T00:32:34.625Z,78.78
2018-11-26T00:36:05.114Z,78.83
2018-11-26T00:39:35.227Z,78.91
2018-11-26T00:43:05.358Z,78.98
2018-11-26T00:46:35.428Z,79.05
2018-11-26T00:50:07.378Z,79.1
2018-11-26T00:53:37.485Z,79.17
2018-11-26T00:57:07.511Z,79.24
2018-11-26T01:00:37.583Z,79.28
2018-11-26T01:04:07.649Z,79.33
2018-11-26T01:07:37.721Z,79.38
2018-11-26T01:11:07.802Z,79.41
2018-11-26T01:14:37.942Z,79.46
2018-11-26T01:18:08.023Z,79.5
2018-11-26T01:21:38.209Z,79.54
2018-11-26T01:25:08.333Z,79.55
2018-11-26T01:28:38.503Z,79.56
2018-11-26T01:32:08.672Z,79.59
2018-11-26T01:35:39.072Z,79.6
2018-11-26T01:39:09.280Z,79.6
2018-11-26T01:42:40.328Z,79.61
2018-11-26T01:46:10.437Z,79.64
2018-11-26T01:49:40.577Z,79.62
2018-11-26T01:53:10.590Z,79.67
2018-11-26T01:56:40.677Z,79.68
2018-11-26T02:00:15.680Z,79.69
2018-11-26T02:03:45.824Z,79.69
2018-11-26T02:07:15.930Z,79.74
2018-11-26T02:10:46.004Z,79.77
2018-11-26T02:14:16.032Z,79.8
2018-11-26T02:17:46.264Z,79.84
2018-11-26T02:21:16.354Z,79.86
2018-11-26T02:24:46.546Z,79.94
2018-11-26T02:28:16.626Z,79.96
2018-11-26T02:31:46.787Z,79.97
2018-11-26T02:35:16.777Z,80.01
2018-11-26T02:38:46.837Z,80.02
2018-11-26T02:42:16.987Z,80.01
2018-11-26T02:45:47.237Z,80.06
2018-11-26T02:49:17.326Z,80.08
2018-11-26T02:52:47.391Z,80.13
2018-11-26T02:56:17.482Z,80.12
2018-11-26T02:59:47.589Z,80.16
2018-11-26T03:03:17.637Z,80.21
2018-11-26T03:06:47.787Z,80.24
2018-11-26T03:10:17.797Z,80.28
2018-11-26T03:13:47.836Z,80.34
2018-11-26T03:17:17.976Z,80.39
2018-11-26T03:20:48.037Z,80.43
2018-11-26T03:24:18.008Z,80.46
2018-11-26T03:27:48.350Z,80.49
2018-11-26T03:31:18.424Z,80.56
2018-11-26T03:34:48.592Z,80.57
2018-11-26T03:38:49.081Z,80.61
2018-11-26T03:42:19.181Z,80.62
2018-11-26T03:45:49.249Z,80.62
2018-11-26T03:49:19.398Z,80.68
2018-11-26T03:52:49.420Z,80.71
2018-11-26T03:56:19.590Z,80.76
2018-11-26T03:59:49.730Z,80.79
2018-11-26T04:00:17.382Z,80.81
2018-11-26T04:03:47.540Z,80.83
2018-11-26T04:07:17.702Z,80.87
2018-11-26T04:10:47.773Z,80.88
2018-11-26T04:14:17.715Z,80.87
2018-11-26T04:17:47.903Z,80.88
2018-11-26T04:21:17.894Z,80.87
2018-11-26T04:24:47.964Z,80.87
2018-11-26T04:28:18.220Z,80.89
2018-11-26T04:31:48.295Z,80.9
2018-11-26T04:35:18.461Z,80.93
2018-11-26T04:38:48.669Z,80.95
2018-11-26T04:42:18.745Z,80.94
2018-11-26T04:45:48.983Z,80.97
2018-11-26T04:49:20.168Z,81.02
2018-11-26T04:52:50.293Z,81.05
2018-11-26T04:56:20.391Z,81.11
2018-11-26T04:59:50.451Z,81.14
2018-11-26T05:03:20.532Z,81.19
2018-11-26T05:06:50.711Z,81.22
2018-11-26T05:10:20.802Z,81.26
2018-11-26T05:13:50.945Z,81.24
2018-11-26T05:17:21.016Z,81.32
2018-11-26T05:20:51.176Z,81.36
2018-11-26T05:24:21.247Z,81.38
2018-11-26T05:27:51.401Z,81.45
2018-11-26T05:31:21.619Z,81.52
2018-11-26T05:34:51.666Z,81.58
2018-11-26T05:38:21.789Z,81.62
2018-11-26T05:41:51.929Z,81.66
2018-11-26T05:45:21.948Z,81.69
2018-11-26T05:48:52.005Z,81.71
2018-11-26T05:52:22.018Z,81.76
2018-11-26T05:55:52.177Z,81.8
2018-11-26T05:59:22.179Z,81.84
2018-11-26T06:00:18.059Z,81.86
2018-11-26T06:03:48.136Z,81.87
2018-11-26T06:07:18.102Z,81.91
2018-11-26T06:10:48.126Z,81.91
2018-11-26T06:14:18.199Z,81.92
2018-11-26T06:17:48.248Z,81.92
2018-11-26T06:21:18.326Z,81.96
2018-11-26T06:24:48.568Z,81.94
2018-11-26T06:28:18.558Z,81.96
2018-11-26T06:31:48.884Z,81.93
2018-11-26T06:35:20.349Z,81.94
2018-11-26T06:38:50.459Z,81.93
2018-11-26T06:42:20.629Z,81.9
2018-11-26T06:45:50.754Z,81.91
2018-11-26T06:49:20.789Z,81.93
2018-11-26T06:52:50.898Z,81.91
2018-11-26T06:56:21.002Z,81.91
2018-11-26T06:59:51.168Z,81.92
2018-11-26T07:03:21.287Z,81.93
2018-11-26T07:06:51.382Z,81.94
2018-11-26T07:10:21.530Z,81.94
2018-11-26T07:13:51.828Z,81.93
2018-11-26T09:33:21.743Z,85.79
2018-11-26T09:36:51.872Z,85.93
2018-11-26T09:40:21.953Z,86.09
2018-11-26T09:43:51.972Z,86.24
2018-11-26T09:47:22.142Z,86.37
2018-11-26T09:50:52.333Z,86.49
2018-11-26T09:54:26.032Z,86.62
2018-11-26T09:57:56.412Z,86.73
2018-11-26T10:00:17.342Z,86.8
2018-11-26T10:03:47.463Z,86.91
2018-11-26T10:07:17.579Z,87.06
2018-11-26T10:10:47.662Z,87.15
2018-11-26T10:14:17.750Z,87.3
2018-11-26T10:17:48.030Z,87.43
2018-11-26T10:21:18.194Z,87.56
2018-11-26T10:24:48.173Z,87.64
2018-11-26T10:28:18.283Z,87.77
2018-11-26T10:31:48.502Z,87.89
2018-11-26T10:35:19.051Z,87.98
2018-11-26T10:38:49.287Z,88.07
2018-11-26T10:42:19.301Z,88.18
2018-11-26T10:45:49.431Z,88.27
2018-11-26T10:49:19.531Z,88.38
2018-11-26T10:52:50.780Z,88.49
2018-11-26T10:56:20.910Z,88.6
2018-11-26T10:59:50.963Z,88.68
2018-11-26T11:03:20.962Z,88.78
2018-11-26T11:06:05.347Z,88.82
2018-11-26T11:08:48.810Z,88.92
2018-11-26T11:12:41.720Z,89.03
2018-11-26T11:16:11.694Z,89.08
2018-11-26T11:18:27.160Z,89.13
2018-11-26T11:21:57.193Z,89.19
2018-11-26T11:25:27.419Z,89.26
2018-11-26T11:28:57.489Z,89.33
2018-11-26T11:32:27.675Z,89.37
2018-11-26T11:35:57.977Z,89.41
2018-11-26T11:39:28.056Z,89.44
2018-11-26T11:42:58.909Z,89.52
2018-11-26T11:46:28.985Z,89.57
2018-11-26T11:49:59.045Z,89.64
2018-11-26T11:53:29.166Z,89.67
2018-11-26T11:56:59.155Z,89.72
2018-11-26T12:00:21.227Z,89.73
2018-11-26T12:03:51.491Z,89.77
2018-11-26T12:07:21.667Z,89.79
2018-11-26T12:10:52.069Z,89.84
2018-11-26T12:14:22.121Z,89.89
2018-11-26T12:17:52.216Z,89.95
2018-11-26T12:21:22.282Z,89.96
2018-11-26T12:24:52.296Z,90.01
2018-11-26T12:28:22.402Z,90
2018-11-26T12:31:52.482Z,90.03
2018-11-26T12:35:22.569Z,90.06
2018-11-26T12:38:52.741Z,90.13
2018-11-26T12:42:22.813Z,90.19
2018-11-26T12:45:52.922Z,90.27
2018-11-26T12:49:23.071Z,90.33
2018-11-26T12:52:53.387Z,90.43
2018-11-26T12:56:23.471Z,90.51
2018-11-26T12:59:53.489Z,90.6
2018-11-26T13:03:23.640Z,90.7
2018-11-26T13:06:53.760Z,90.79
2018-11-26T13:10:24.160Z,90.87
2018-11-26T13:14:07.236Z,90.99
2018-11-26T13:17:37.437Z,91.11
2018-11-26T13:21:07.529Z,91.2
2018-11-26T13:24:37.630Z,91.32
2018-11-26T13:28:07.981Z,91.43
2018-11-26T13:31:38.232Z,91.51
2018-11-26T13:35:09.712Z,91.64
2018-11-26T13:38:39.902Z,91.73
2018-11-26T13:42:10.272Z,91.87
2018-11-26T13:45:41.962Z,91.97
2018-11-26T13:49:12.148Z,92.08
2018-11-26T13:52:42.300Z,92.23
2018-11-26T13:56:12.420Z,92.33
2018-11-26T13:59:42.479Z,92.5
2018-11-26T14:00:16.826Z,92.51
2018-11-26T14:03:46.859Z,92.62
2018-11-26T14:07:16.998Z,92.77
2018-11-26T14:10:47.116Z,92.92
2018-11-26T14:14:17.237Z,93.06
2018-11-26T14:17:47.235Z,93.19
2018-11-26T14:21:17.265Z,93.32
2018-11-26T14:24:47.309Z,93.41
2018-11-26T14:28:17.378Z,93.5
2018-11-26T14:31:47.428Z,93.6
2018-11-26T14:35:17.555Z,93.7
2018-11-26T14:38:47.572Z,93.83
2018-11-26T14:42:17.868Z,93.91
2018-11-26T14:45:47.890Z,94.03
2018-11-26T14:49:17.998Z,94.12
2018-11-26T14:52:48.362Z,94.19
2018-11-26T14:56:18.447Z,94.28
2018-11-26T14:59:48.494Z,94.38
2018-11-26T15:03:18.846Z,94.49
2018-11-26T15:06:48.897Z,94.56
2018-11-26T15:10:20.947Z,94.62
2018-11-26T15:13:50.993Z,94.72
2018-11-26T15:17:21.176Z,94.8
2018-11-26T15:20:51.287Z,94.89
2018-11-26T15:24:21.437Z,94.96
2018-11-26T15:27:52.634Z,95.04
2018-11-26T15:31:23.413Z,95.06
2018-11-26T15:37:11.642Z,95.19
2018-11-26T15:40:41.691Z,95.29
2018-11-26T15:44:12.079Z,95.38
2018-11-26T15:47:42.127Z,95.46
2018-11-26T15:51:12.173Z,95.55
2018-11-26T15:54:42.247Z,95.62
2018-11-26T15:58:12.384Z,95.66
2018-11-26T16:00:17.732Z,95.71
2018-11-26T16:03:47.821Z,95.76
2018-11-26T16:07:17.900Z,95.83
2018-11-26T16:10:47.904Z,95.91
2018-11-26T16:14:18.021Z,95.97
2018-11-26T16:17:48.456Z,96.02
2018-11-26T16:21:18.424Z,96.07
2018-11-26T16:24:48.574Z,96.15
2018-11-26T16:28:20.678Z,96.23
2018-11-26T16:31:50.695Z,96.27
2018-11-26T16:35:23.710Z,96.33
2018-11-26T16:38:53.868Z,96.38
2018-11-26T16:42:24.174Z,96.47
2018-11-26T16:45:54.494Z,96.51
2018-11-26T16:49:24.543Z,96.5
2018-11-26T16:52:54.694Z,96.54
2018-11-26T16:56:24.784Z,96.61
2018-11-26T16:59:55.207Z,96.68
2018-11-26T17:03:25.236Z,96.75
2018-11-26T17:06:55.386Z,96.85
2018-11-26T17:10:25.487Z,96.88
2018-11-26T17:13:55.719Z,96.94
2018-11-26T17:17:25.899Z,96.98
2018-11-26T17:20:56.179Z,97.02
2018-11-26T17:24:26.309Z,97.07
2018-11-26T17:27:56.630Z,97.09
2018-11-26T17:31:26.717Z,97.15
2018-11-26T17:34:56.877Z,97.25
2018-11-26T17:38:26.979Z,97.27
2018-11-26T17:41:57.130Z,97.29
2018-11-26T17:45:27.311Z,97.33
2018-11-26T17:48:57.512Z,97.35
2018-11-26T17:52:27.635Z,97.33
2018-11-26T17:55:57.803Z,97.38
2018-11-26T17:59:27.903Z,97.44
2018-11-26T18:00:21.525Z,97.44
2018-11-26T18:03:51.586Z,97.45
2018-11-26T18:07:21.697Z,97.46
2018-11-26T18:10:51.918Z,97.46
2018-11-26T18:14:21.928Z,97.52
2018-11-26T18:17:52.019Z,97.56
2018-11-26T18:21:22.139Z,97.52
2018-11-26T18:24:52.219Z,97.52
2018-11-26T18:28:22.193Z,97.58
2018-11-26T18:31:52.308Z,97.63
2018-11-26T18:35:22.486Z,97.66
2018-11-26T18:38:52.827Z,97.69
2018-11-26T18:42:22.837Z,97.68
2018-11-26T18:45:52.966Z,97.74
2018-11-26T18:49:23.146Z,97.77
2018-11-26T18:52:53.367Z,97.8
2018-11-26T18:56:23.466Z,97.84
2018-11-26T18:59:53.546Z,97.81
2018-11-26T19:03:23.707Z,97.82
2018-11-26T19:06:53.819Z,97.86
2018-11-26T19:10:25.628Z,97.8
2018-11-26T19:13:58.818Z,97.86
2018-11-26T19:17:28.941Z,97.84
2018-11-26T19:20:59.072Z,97.88
2018-11-26T19:24:29.338Z,97.9
2018-11-26T19:27:59.508Z,97.9
2018-11-26T19:31:29.548Z,97.95
2018-11-26T19:34:59.748Z,97.93
2018-11-26T19:38:29.818Z,97.95
2018-11-26T19:42:00.007Z,97.98
2018-11-26T19:45:30.257Z,97.95
2018-11-26T19:49:00.437Z,97.95
2018-11-26T19:52:30.749Z,97.97
2018-11-26T19:56:00.958Z,97.93
2018-11-26T19:59:31.070Z,97.98
2018-11-26T20:00:19.198Z,98.01
2018-11-26T20:03:53.118Z,98.01
2018-11-26T20:07:23.168Z,98.04
2018-11-26T20:10:53.282Z,98.05
2018-11-26T20:14:25.995Z,98.13
2018-11-26T20:17:59.075Z,98.13
2018-11-26T20:21:29.321Z,98.14
2018-11-26T20:24:59.349Z,98.17
2018-11-26T20:28:29.388Z,98.18
2018-11-26T20:31:59.587Z,98.18
2018-11-26T20:35:29.639Z,98.23
2018-11-26T20:38:59.747Z,98.23
2018-11-26T20:42:29.814Z,98.25
2018-11-26T20:45:59.956Z,98.28
2018-11-26T20:49:30.051Z,98.25
2018-11-26T20:53:00.591Z,98.27
2018-11-26T20:56:30.640Z,98.29
2018-11-26T21:00:00.771Z,98.34
2018-11-26T21:03:32.060Z,98.31
2018-11-26T21:07:02.251Z,98.27
2018-11-26T21:10:32.381Z,98.27
2018-11-26T21:14:02.612Z,98.26
2018-11-26T21:17:32.659Z,98.22
2018-11-26T21:21:03.181Z,98.24
2018-11-26T21:24:33.381Z,98.25
2018-11-26T21:28:04.271Z,98.27
2018-11-26T21:31:34.420Z,98.28
2018-11-26T21:35:05.907Z,98.25
2018-11-26T21:38:37.792Z,98.18
2018-11-26T21:42:08.073Z,98.2
2018-11-26T21:45:56.922Z,98.22
2018-11-26T21:49:27.033Z,98.23
2018-11-26T21:52:57.149Z,98.21
2018-11-26T21:56:27.363Z,98.21
2018-11-26T21:59:57.469Z,98.21
2018-11-26T22:00:32.399Z,98.22
2018-11-26T22:04:02.487Z,98.19
2018-11-26T22:07:32.548Z,98.15
2018-11-26T22:11:03.118Z,98.15
2018-11-26T22:14:33.203Z,98.13
2018-11-26T22:18:03.398Z,98.03
2018-11-26T22:21:33.580Z,98.01
2018-11-26T22:25:04.659Z,98.11
2018-11-26T22:28:35.052Z,98.07
2018-11-26T22:32:05.361Z,98.05
2018-11-26T22:35:35.504Z,98.03
2018-11-26T22:39:07.401Z,98.06
2018-11-26T22:42:37.810Z,98.03
2018-11-26T22:46:08.010Z,97.99
2018-11-26T22:49:38.020Z,97.89
2018-11-26T22:53:08.532Z,97.91
2018-11-26T22:56:38.830Z,97.86
2018-11-26T23:00:18.742Z,97.9
2018-11-26T23:03:48.842Z,97.86
2018-11-26T23:07:19.071Z,97.85
2018-11-26T23:10:49.201Z,97.85
2018-11-26T23:14:19.367Z,97.87
2018-11-26T23:17:49.534Z,97.81
2018-11-26T23:21:19.564Z,97.82
2018-11-26T23:24:49.642Z,97.82
2018-11-26T23:28:19.811Z,97.77
2018-11-26T23:31:49.891Z,97.8
2018-11-26T23:35:19.951Z,97.78
2018-11-26T23:38:50.092Z,97.73
2018-11-26T23:42:20.192Z,97.78
2018-11-26T23:45:50.191Z,97.76
2018-11-26T23:49:20.309Z,97.73
2018-11-26T23:52:50.330Z,97.7
2018-11-26T23:56:20.438Z,97.74
2018-11-26T23:59:50.618Z,97.71
